createdAt,value
2018-07-03T00:00:33.501Z,1.70
2018-07-03T00:01:33.503Z,1.50
2018-07-03T00:02:33.537Z,1.50
2018-07-03T00:03:33.551Z,1.40
2018-07-03T00:04:33.570Z,1.60
2018-07-03T00:05:33.583Z,1.50
2018-07-03T00:06:33.608Z,1.90
2018-07-03T00:07:33.634Z,1.70
2018-07-03T00:08:33.650Z,1.50
2018-07-03T00:09:33.676Z,1.70
2018-07-03T00:10:33.729Z,1.40
2018-07-03T00:11:33.713Z,1.60
2018-07-03T00:12:33.730Z,1.50
2018-07-03T00:13:33.755Z,1.60
2018-07-03T00:14:33.796Z,1.60
2018-07-03T00:15:33.797Z,1.50
2018-07-03T00:16:33.820Z,1.60
2018-07-03T00:17:33.832Z,1.70
2018-07-03T00:18:33.859Z,1.60
2018-07-03T00:19:33.874Z,1.60
2018-07-03T00:20:33.895Z,1.60
2018-07-03T00:21:33.908Z,1.80
2018-07-03T00:22:33.937Z,1.90
2018-07-03T00:23:33.951Z,1.90
2018-07-03T00:24:33.981Z,1.70
2018-07-03T00:25:34.008Z,1.80
2018-07-03T00:26:34.016Z,2.10
2018-07-03T00:27:34.041Z,1.70
2018-07-03T00:28:34.062Z,1.60
2018-07-03T00:29:34.086Z,1.70
2018-07-03T00:30:34.097Z,1.90
2018-07-03T00:31:34.123Z,1.80
2018-07-03T00:32:34.133Z,1.90
2018-07-03T00:33:34.158Z,2.00
2018-07-03T00:34:34.178Z,1.70
2018-07-03T00:35:34.208Z,1.80
2018-07-03T00:36:34.225Z,1.80
2018-07-03T00:37:34.243Z,2.00
2018-07-03T00:38:34.263Z,1.80
2018-07-03T00:39:34.277Z,2.20
2018-07-03T00:40:34.306Z,1.90
2018-07-03T00:41:34.320Z,1.90
2018-07-03T00:42:34.342Z,1.80
2018-07-03T00:43:34.367Z,1.90
2018-07-03T00:44:34.385Z,1.70
2018-07-03T00:45:34.399Z,1.90
2018-07-03T00:46:34.427Z,1.90
2018-07-03T00:47:34.441Z,1.80
2018-07-03T00:48:34.463Z,1.70
2018-07-03T00:49:34.489Z,1.70
2018-07-03T00:50:34.506Z,1.70
2018-07-03T00:51:34.529Z,1.60
2018-07-03T00:52:34.539Z,1.70
2018-07-03T00:53:34.571Z,1.90
2018-07-03T00:54:34.581Z,1.60
2018-07-03T00:55:34.607Z,1.70
2018-07-03T00:56:34.624Z,1.60
2018-07-03T00:57:34.662Z,1.80
2018-07-03T00:58:34.658Z,1.70
2018-07-03T00:59:34.684Z,1.80
2018-07-03T01:00:34.701Z,1.80
2018-07-03T01:01:34.727Z,1.50
2018-07-03T01:02:34.755Z,1.90
2018-07-03T01:03:34.769Z,1.50
2018-07-03T01:04:34.790Z,1.50
2018-07-03T01:05:34.803Z,1.60
2018-07-03T01:06:34.832Z,1.60
2018-07-03T01:07:34.845Z,1.50
2018-07-03T01:08:34.866Z,1.60
2018-07-03T01:09:34.881Z,1.50
2018-07-03T01:10:34.908Z,1.30
2018-07-03T01:11:34.923Z,1.40
2018-07-03T01:12:34.955Z,1.50
2018-07-03T01:13:34.964Z,1.60
2018-07-03T01:14:34.986Z,1.40
2018-07-03T01:15:35.001Z,1.60
2018-07-03T01:16:35.035Z,1.50
2018-07-03T01:17:35.048Z,1.50
2018-07-03T01:18:35.068Z,1.50
2018-07-03T01:19:35.094Z,1.60
2018-07-03T01:20:35.104Z,1.50
2018-07-03T01:21:35.118Z,1.40
2018-07-03T01:22:35.149Z,1.20
2018-07-03T01:23:35.176Z,1.60
2018-07-03T01:24:35.185Z,1.40
2018-07-03T01:25:35.461Z,1.60
2018-07-03T01:26:35.221Z,1.50
2018-07-03T01:27:35.248Z,1.50
2018-07-03T01:28:35.266Z,1.60
2018-07-03T01:29:35.292Z,1.40
2018-07-03T01:30:35.300Z,1.60
2018-07-03T01:31:35.326Z,1.40
2018-07-03T01:32:35.345Z,1.40
2018-07-03T01:33:35.371Z,1.40
2018-07-03T01:34:35.388Z,1.60
2018-07-03T01:35:35.412Z,1.40
2018-07-03T01:36:35.422Z,1.50
2018-07-03T01:37:35.448Z,1.60
2018-07-03T01:38:35.462Z,1.60
2018-07-03T01:39:35.488Z,1.50
2018-07-03T01:40:35.499Z,1.70
2018-07-03T01:41:35.524Z,1.50
2018-07-03T01:42:35.549Z,1.50
2018-07-03T01:43:35.566Z,1.60
2018-07-03T01:44:35.583Z,1.70
2018-07-03T01:45:35.611Z,1.70
2018-07-03T01:46:35.619Z,1.50
2018-07-03T01:47:35.643Z,1.60
2018-07-03T01:48:35.679Z,1.70
2018-07-03T01:49:35.696Z,1.70
2018-07-03T01:50:35.715Z,1.50
2018-07-03T01:51:35.725Z,1.50
2018-07-03T01:52:35.746Z,2.20
2018-07-03T01:53:35.761Z,1.70
2018-07-03T01:54:35.793Z,1.70
2018-07-03T01:55:35.806Z,1.50
2018-07-03T01:56:35.827Z,1.50
2018-07-03T01:57:35.842Z,1.60
2018-07-03T01:58:35.868Z,1.60
2018-07-03T01:59:35.879Z,1.50
2018-07-03T02:00:35.909Z,1.60
2018-07-03T02:01:35.924Z,1.80
2018-07-03T02:02:35.950Z,1.80
2018-07-03T02:03:35.961Z,1.40
2018-07-03T02:04:35.983Z,1.70
2018-07-03T02:05:35.997Z,1.60
2018-07-03T02:06:36.025Z,1.50
2018-07-03T02:07:36.038Z,1.40
2018-07-03T02:08:36.068Z,1.50
2018-07-03T02:09:36.082Z,1.60
2018-07-03T02:10:36.102Z,1.50
2018-07-03T02:11:36.114Z,1.60
2018-07-03T02:12:36.158Z,1.50
2018-07-03T02:13:36.159Z,1.40
2018-07-03T02:14:36.188Z,1.70
2018-07-03T02:15:36.201Z,1.40
2018-07-03T02:16:36.222Z,1.40
2018-07-03T02:17:36.237Z,1.70
2018-07-03T02:18:36.266Z,1.50
2018-07-03T02:19:36.293Z,1.50
2018-07-03T02:20:36.302Z,1.40
2018-07-03T02:21:36.315Z,1.50
2018-07-03T02:22:36.339Z,1.50
2018-07-03T02:23:36.351Z,1.50
2018-07-03T02:24:36.382Z,1.60
2018-07-03T02:25:36.396Z,1.50
2018-07-03T02:26:36.421Z,1.40
2018-07-03T02:27:36.446Z,1.50
2018-07-03T02:28:36.463Z,1.50
2018-07-03T02:29:36.478Z,1.40
2018-07-03T02:30:36.501Z,1.40
2018-07-03T02:31:36.516Z,1.40
2018-07-03T02:32:36.537Z,1.50
2018-07-03T02:33:36.550Z,1.70
2018-07-03T02:34:36.580Z,1.70
2018-07-03T02:35:36.593Z,1.70
2018-07-03T02:36:36.610Z,1.50
2018-07-03T02:37:36.628Z,1.60
2018-07-03T02:38:36.646Z,1.40
2018-07-03T02:39:36.670Z,1.40
2018-07-03T02:40:36.692Z,1.40
2018-07-03T02:41:36.713Z,1.20
2018-07-03T02:42:36.722Z,1.30
2018-07-03T02:43:36.746Z,1.40
2018-07-03T02:44:36.765Z,1.20
2018-07-03T02:45:36.791Z,1.50
2018-07-03T02:46:36.805Z,1.70
2018-07-03T02:47:36.835Z,1.50
2018-07-03T02:48:36.841Z,1.50
2018-07-03T02:49:36.868Z,1.60
2018-07-03T02:50:36.885Z,1.40
2018-07-03T02:51:36.911Z,1.50
2018-07-03T02:52:36.920Z,1.50
2018-07-03T02:53:36.947Z,1.50
2018-07-03T02:54:36.957Z,1.50
2018-07-03T02:55:36.984Z,1.50
2018-07-03T02:56:37.003Z,1.60
2018-07-03T02:57:37.016Z,1.40
2018-07-03T02:58:37.039Z,1.30
2018-07-03T02:59:37.064Z,1.50
2018-07-03T03:00:37.082Z,1.30
2018-07-03T03:01:37.096Z,1.30
2018-07-03T03:02:37.120Z,1.30
2018-07-03T03:03:37.132Z,1.30
2018-07-03T03:04:37.156Z,1.30
2018-07-03T03:05:37.168Z,1.20
2018-07-03T03:06:37.233Z,1.30
2018-07-03T03:07:37.214Z,1.40
2018-07-03T03:08:37.242Z,1.30
2018-07-03T03:09:37.313Z,1.40
2018-07-03T03:10:37.273Z,1.30
2018-07-03T03:11:37.291Z,1.40
2018-07-03T03:12:37.317Z,1.40
2018-07-03T03:13:37.330Z,1.30
2018-07-03T03:14:37.357Z,1.50
2018-07-03T03:15:37.368Z,1.30
2018-07-03T03:16:37.399Z,1.40
2018-07-03T03:17:37.411Z,1.40
2018-07-03T03:18:37.434Z,1.40
2018-07-03T03:19:37.449Z,1.30
2018-07-03T03:20:37.471Z,1.60
2018-07-03T03:21:37.484Z,1.30
2018-07-03T03:22:37.505Z,1.30
2018-07-03T03:23:37.530Z,1.30
2018-07-03T03:24:37.537Z,1.30
2018-07-03T03:25:37.567Z,1.40
2018-07-03T03:26:37.580Z,1.50
2018-07-03T03:27:37.605Z,1.40
2018-07-03T03:28:37.625Z,1.40
2018-07-03T03:29:37.649Z,1.30
2018-07-03T03:30:37.655Z,1.40
2018-07-03T03:31:37.682Z,1.30
2018-07-03T03:32:37.699Z,1.30
2018-07-03T03:33:37.725Z,1.30
2018-07-03T03:34:37.739Z,1.30
2018-07-03T03:35:37.770Z,1.30
2018-07-03T03:36:37.788Z,1.20
2018-07-03T03:37:37.800Z,1.40
2018-07-03T03:38:37.820Z,1.20
2018-07-03T03:39:37.845Z,1.30
2018-07-03T03:40:37.854Z,1.20
2018-07-03T03:41:37.893Z,1.30
2018-07-03T03:42:37.892Z,1.20
2018-07-03T03:43:37.918Z,1.20
2018-07-03T03:44:37.935Z,1.30
2018-07-03T03:45:37.949Z,1.30
2018-07-03T03:46:37.973Z,1.30
2018-07-03T03:47:37.987Z,1.40
2018-07-03T03:48:38.017Z,1.40
2018-07-03T03:49:38.055Z,1.40
2018-07-03T03:50:38.055Z,1.60
2018-07-03T03:51:38.081Z,1.40
2018-07-03T03:52:38.089Z,1.60
2018-07-03T03:53:38.102Z,1.20
2018-07-03T03:54:38.136Z,1.20
2018-07-03T03:55:38.146Z,1.30
2018-07-03T03:56:38.168Z,1.20
2018-07-03T03:57:38.183Z,1.70
2018-07-03T03:58:38.213Z,1.50
2018-07-03T03:59:38.223Z,1.40
2018-07-03T04:00:38.253Z,1.40
2018-07-03T04:01:38.266Z,1.30
2018-07-03T04:02:38.286Z,1.30
2018-07-03T04:03:38.301Z,1.30
2018-07-03T04:04:38.329Z,1.40
2018-07-03T04:05:38.345Z,1.20
2018-07-03T04:06:38.372Z,1.10
2018-07-03T04:07:38.387Z,1.20
2018-07-03T04:08:38.406Z,1.40
2018-07-03T04:09:38.421Z,1.50
2018-07-03T04:10:38.446Z,1.40
2018-07-03T04:11:38.459Z,1.50
2018-07-03T04:12:38.503Z,1.40
2018-07-03T04:13:38.504Z,1.20
2018-07-03T04:14:38.528Z,1.30
2018-07-03T04:15:38.540Z,1.40
2018-07-03T04:16:38.564Z,1.20
2018-07-03T04:17:38.576Z,1.20
2018-07-03T04:18:38.608Z,1.20
2018-07-03T04:19:38.638Z,1.30
2018-07-03T04:20:38.644Z,1.30
2018-07-03T04:21:38.657Z,1.60
2018-07-03T04:22:38.682Z,1.50
2018-07-03T04:23:38.697Z,1.30
2018-07-03T04:24:38.723Z,1.30
2018-07-03T04:25:38.749Z,1.30
2018-07-03T04:26:38.764Z,1.40
2018-07-03T04:27:38.786Z,1.40
2018-07-03T04:28:38.802Z,1.40
2018-07-03T04:29:38.828Z,1.40
2018-07-03T04:30:38.846Z,1.30
2018-07-03T04:31:38.871Z,1.30
2018-07-03T04:32:38.881Z,1.30
2018-07-03T04:33:38.906Z,1.30
2018-07-03T04:34:38.922Z,1.20
2018-07-03T04:35:38.951Z,1.40
2018-07-03T04:36:38.956Z,1.20
2018-07-03T04:37:38.983Z,1.30
2018-07-03T04:38:38.999Z,1.50
2018-07-03T04:39:39.024Z,1.30
2018-07-03T04:40:39.041Z,1.50
2018-07-03T04:41:39.067Z,1.50
2018-07-03T04:42:39.077Z,1.20
2018-07-03T04:43:39.103Z,1.30
2018-07-03T04:44:39.121Z,1.20
2018-07-03T04:45:39.146Z,1.40
2018-07-03T04:46:39.170Z,1.30
2018-07-03T04:47:39.184Z,1.20
2018-07-03T04:48:39.206Z,1.20
2018-07-03T04:49:39.220Z,1.20
2018-07-03T04:50:39.251Z,1.10
2018-07-03T04:51:39.266Z,1.30
2018-07-03T04:52:39.287Z,1.20
2018-07-03T04:53:39.300Z,1.40
2018-07-03T04:54:39.324Z,1.50
2018-07-03T04:55:39.341Z,1.20
2018-07-03T04:56:39.369Z,1.30
2018-07-03T04:57:39.384Z,1.50
2018-07-03T04:58:39.402Z,1.20
2018-07-03T04:59:39.428Z,1.30
2018-07-03T05:00:39.451Z,1.20
2018-07-03T05:01:39.475Z,1.40
2018-07-03T05:02:39.491Z,1.20
2018-07-03T05:03:39.527Z,1.40
2018-07-03T05:04:39.524Z,1.40
2018-07-03T05:05:39.550Z,1.30
2018-07-03T05:06:39.565Z,1.60
2018-07-03T05:07:39.591Z,1.20
2018-07-03T05:08:39.612Z,1.20
2018-07-03T05:09:39.626Z,1.50
2018-07-03T05:10:39.655Z,1.30
2018-07-03T05:11:39.669Z,1.40
2018-07-03T05:12:39.699Z,1.50
2018-07-03T05:13:39.714Z,1.60
2018-07-03T05:14:39.736Z,2.10
2018-07-03T05:15:39.757Z,1.70
2018-07-03T05:16:39.775Z,1.50
2018-07-03T05:17:39.802Z,1.50
2018-07-03T05:18:39.817Z,1.30
2018-07-03T05:19:39.844Z,1.30
2018-07-03T05:20:39.853Z,1.30
2018-07-03T05:21:39.881Z,1.50
2018-07-03T05:22:39.905Z,1.20
2018-07-03T05:23:39.919Z,1.40
2018-07-03T05:24:39.984Z,1.50
2018-07-03T05:25:39.954Z,1.20
2018-07-03T05:26:39.982Z,1.00
2018-07-03T05:27:40.008Z,1.10
2018-07-03T05:28:40.032Z,1.40
2018-07-03T05:29:40.053Z,1.30
2018-07-03T05:30:40.075Z,1.30
2018-07-03T05:31:40.110Z,1.40
2018-07-03T05:32:40.117Z,1.40
2018-07-03T05:33:40.144Z,1.20
2018-07-03T05:34:40.155Z,1.40
2018-07-03T05:35:40.182Z,1.60
2018-07-03T05:36:40.204Z,1.30
2018-07-03T05:37:40.230Z,1.20
2018-07-03T05:38:40.250Z,1.10
2018-07-03T05:39:40.274Z,1.50
2018-07-03T05:40:40.296Z,1.30
2018-07-03T05:41:40.336Z,1.30
2018-07-03T05:42:40.346Z,1.20
2018-07-03T05:43:40.362Z,1.10
2018-07-03T05:44:40.390Z,1.30
2018-07-03T05:45:40.418Z,1.10
2018-07-03T05:46:40.438Z,1.50
2018-07-03T05:47:40.452Z,1.40
2018-07-03T05:48:40.534Z,1.30
2018-07-03T05:49:40.507Z,1.20
2018-07-03T05:50:40.534Z,1.20
2018-07-03T05:51:40.561Z,1.20
2018-07-03T05:52:40.575Z,1.50
2018-07-03T05:53:40.596Z,1.10
2018-07-03T05:54:40.625Z,1.40
2018-07-03T05:55:40.653Z,1.20
2018-07-03T05:56:40.674Z,1.20
2018-07-03T05:57:40.685Z,1.20
2018-07-03T05:58:40.714Z,1.30
2018-07-03T05:59:40.740Z,1.30
2018-07-03T06:00:40.770Z,1.30
2018-07-03T06:01:40.787Z,1.60
2018-07-03T06:02:40.810Z,1.20
2018-07-03T06:03:40.832Z,1.40
2018-07-03T06:04:40.850Z,1.10
2018-07-03T06:05:40.875Z,1.40
2018-07-03T06:06:40.900Z,1.40
2018-07-03T06:07:40.924Z,1.30
2018-07-03T06:08:41.068Z,1.30
2018-07-03T06:09:40.960Z,1.90
2018-07-03T06:10:40.992Z,1.10
2018-07-03T06:11:41.020Z,1.40
2018-07-03T06:12:41.027Z,1.30
2018-07-03T06:13:41.053Z,1.30
2018-07-03T06:14:41.077Z,1.30
2018-07-03T06:15:41.102Z,1.30
2018-07-03T06:16:41.121Z,1.20
2018-07-03T06:17:41.147Z,1.30
2018-07-03T06:18:41.174Z,1.60
2018-07-03T06:19:41.200Z,1.40
2018-07-03T06:20:41.210Z,1.30
2018-07-03T06:21:41.235Z,1.10
2018-07-03T06:22:41.295Z,1.20
2018-07-03T06:23:41.288Z,1.20
2018-07-03T06:24:41.318Z,1.30
2018-07-03T06:25:41.332Z,1.10
2018-07-03T06:26:41.352Z,1.50
2018-07-03T06:27:41.379Z,1.30
2018-07-03T06:28:41.454Z,1.70
2018-07-03T06:29:41.439Z,1.80
2018-07-03T06:30:41.462Z,1.50
2018-07-03T06:31:41.488Z,1.30
2018-07-03T06:32:41.591Z,1.20
2018-07-03T06:33:41.536Z,1.30
2018-07-03T06:34:41.566Z,1.10
2018-07-03T06:35:41.594Z,1.40
2018-07-03T06:36:41.617Z,1.30
2018-07-03T06:37:41.710Z,1.20
2018-07-03T06:38:41.664Z,1.40
2018-07-03T06:39:41.701Z,1.00
2018-07-03T06:40:41.733Z,1.50
2018-07-03T06:41:41.762Z,1.30
2018-07-03T06:42:41.781Z,1.40
2018-07-03T06:43:41.809Z,1.40
2018-07-03T06:44:41.839Z,1.30
2018-07-03T06:45:41.876Z,1.20
2018-07-03T06:46:41.901Z,1.40
2018-07-03T06:47:41.927Z,1.10
2018-07-03T06:48:41.952Z,1.20
2018-07-03T06:49:41.986Z,1.10
2018-07-03T06:50:42.016Z,1.40
2018-07-03T06:51:42.050Z,1.10
2018-07-03T06:52:42.079Z,1.20
2018-07-03T06:53:42.112Z,1.40
2018-07-03T06:54:42.131Z,1.20
2018-07-03T06:55:42.169Z,1.20
2018-07-03T06:56:42.199Z,1.30
2018-07-03T06:57:42.225Z,1.10
2018-07-03T06:58:42.258Z,1.30
2018-07-03T06:59:42.283Z,1.70
2018-07-03T07:00:42.326Z,1.20
2018-07-03T07:01:42.364Z,1.50
2018-07-03T07:02:42.396Z,1.40
2018-07-03T07:03:42.421Z,1.30
2018-07-03T07:04:42.453Z,1.30
2018-07-03T07:05:42.479Z,1.30
2018-07-03T07:06:42.522Z,1.20
2018-07-03T07:07:42.550Z,1.20
2018-07-03T07:08:42.678Z,1.30
2018-07-03T07:09:42.667Z,1.00
2018-07-03T07:10:42.645Z,1.30
2018-07-03T07:11:42.682Z,1.10
2018-07-03T07:12:42.712Z,1.20
2018-07-03T07:13:42.752Z,1.20
2018-07-03T07:14:42.776Z,1.00
2018-07-03T07:15:42.816Z,1.20
2018-07-03T07:16:42.859Z,1.20
2018-07-03T07:17:42.882Z,1.10
2018-07-03T07:18:42.919Z,1.10
2018-07-03T07:19:42.958Z,1.30
2018-07-03T07:20:42.979Z,1.10
2018-07-03T07:21:43.017Z,1.10
2018-07-03T07:22:43.063Z,1.00
2018-07-03T07:23:43.090Z,1.10
2018-07-03T07:24:43.122Z,1.60
2018-07-03T07:25:43.161Z,2.30
2018-07-03T07:26:43.198Z,1.50
2018-07-03T07:27:43.225Z,1.50
2018-07-03T07:28:43.267Z,1.20
2018-07-03T07:29:43.304Z,0.90
2018-07-03T07:30:43.341Z,1.10
2018-07-03T07:31:43.369Z,1.10
2018-07-03T07:32:43.409Z,1.20
2018-07-03T07:33:43.448Z,0.90
2018-07-03T07:34:43.484Z,1.30
2018-07-03T07:35:43.510Z,1.00
2018-07-03T07:36:43.547Z,1.00
2018-07-03T07:37:43.583Z,1.00
2018-07-03T07:38:43.626Z,1.20
2018-07-03T07:39:43.667Z,1.00
2018-07-03T07:40:43.698Z,1.00
2018-07-03T07:41:43.725Z,1.00
2018-07-03T07:42:43.806Z,1.20
2018-07-03T07:43:43.804Z,1.00
2018-07-03T07:44:43.846Z,1.10
2018-07-03T07:45:43.884Z,1.10
2018-07-03T07:46:43.916Z,1.20
2018-07-03T07:47:43.956Z,1.00
2018-07-03T07:48:44.001Z,1.00
2018-07-03T07:49:44.037Z,1.40
2018-07-03T07:50:44.065Z,1.00
2018-07-03T07:51:44.104Z,1.20
2018-07-03T07:52:44.138Z,1.30
2018-07-03T07:53:44.178Z,1.30
2018-07-03T07:54:44.219Z,1.10
2018-07-03T07:55:44.256Z,1.00
2018-07-03T07:56:44.292Z,1.00
2018-07-03T07:57:44.344Z,1.00
2018-07-03T07:58:44.356Z,1.20
2018-07-03T07:59:44.392Z,1.40
2018-07-03T08:00:44.435Z,1.10
2018-07-03T08:01:44.474Z,1.10
2018-07-03T08:02:44.509Z,1.00
2018-07-03T08:03:44.548Z,0.90
2018-07-03T08:04:44.590Z,1.20
2018-07-03T08:05:44.630Z,1.30
2018-07-03T08:06:44.728Z,0.90
2018-07-03T08:07:44.705Z,0.90
2018-07-03T08:08:44.741Z,1.00
2018-07-03T08:09:44.777Z,1.20
2018-07-03T08:10:44.819Z,0.90
2018-07-03T08:11:44.859Z,1.00
2018-07-03T08:12:44.893Z,0.90
2018-07-03T08:13:44.931Z,1.00
2018-07-03T08:14:44.971Z,1.10
2018-07-03T08:15:45.011Z,1.00
2018-07-03T08:16:45.052Z,1.10
2018-07-03T08:17:45.097Z,1.10
2018-07-03T08:18:45.128Z,1.00
2018-07-03T08:19:45.163Z,0.80
2018-07-03T08:20:45.204Z,1.00
2018-07-03T08:21:45.243Z,0.80
2018-07-03T08:22:45.284Z,0.80
2018-07-03T08:23:45.333Z,1.00
2018-07-03T08:24:45.369Z,1.00
2018-07-03T08:25:45.407Z,0.90
2018-07-03T08:26:45.448Z,0.80
2018-07-03T08:27:45.486Z,1.00
2018-07-03T08:28:45.520Z,0.90
2018-07-03T08:29:45.558Z,0.90
2018-07-03T08:30:45.599Z,1.40
2018-07-03T08:31:45.650Z,1.10
2018-07-03T08:32:45.683Z,0.90
2018-07-03T08:33:45.722Z,0.90
2018-07-03T08:34:45.753Z,0.90
2018-07-03T08:35:45.802Z,1.00
2018-07-03T08:36:45.844Z,1.10
2018-07-03T08:37:45.934Z,1.30
2018-07-03T08:38:45.923Z,1.00
2018-07-03T08:39:45.962Z,0.80
2018-07-03T08:40:45.996Z,0.80
2018-07-03T08:41:46.035Z,0.90
2018-07-03T08:42:46.108Z,0.90
2018-07-03T08:43:46.117Z,0.90
2018-07-03T08:44:46.163Z,0.90
2018-07-03T08:45:46.200Z,0.90
2018-07-03T08:46:46.241Z,1.00
2018-07-03T08:47:46.276Z,0.90
2018-07-03T08:48:46.319Z,0.80
2018-07-03T08:49:46.356Z,0.90
2018-07-03T08:50:46.393Z,1.00
2018-07-03T08:51:46.486Z,0.90
2018-07-03T08:52:46.486Z,0.90
2018-07-03T08:53:46.529Z,0.90
2018-07-03T08:54:46.574Z,1.00
2018-07-03T08:55:46.604Z,0.90
2018-07-03T08:56:46.636Z,0.90
2018-07-03T08:57:46.673Z,0.80
2018-07-03T08:58:46.729Z,0.80
2018-07-03T08:59:46.771Z,1.40
2018-07-03T09:00:46.845Z,0.90
2018-07-03T09:01:46.839Z,0.80
2018-07-03T09:02:46.880Z,1.10
2018-07-03T09:03:46.955Z,1.10
2018-07-03T09:04:46.973Z,1.00
2018-07-03T09:05:47.012Z,1.10
2018-07-03T09:06:47.044Z,0.90
2018-07-03T09:07:47.084Z,0.90
2018-07-03T09:08:47.139Z,1.10
2018-07-03T09:09:47.175Z,1.00
2018-07-03T09:10:47.219Z,0.90
2018-07-03T09:11:47.256Z,0.80
2018-07-03T09:12:47.304Z,0.70
2018-07-03T09:13:47.341Z,0.70
2018-07-03T09:14:47.383Z,0.90
2018-07-03T09:15:47.421Z,1.00
2018-07-03T09:16:47.469Z,0.80
2018-07-03T09:17:47.543Z,1.10
2018-07-03T09:18:47.545Z,1.10
2018-07-03T09:19:47.581Z,0.90
2018-07-03T09:20:47.636Z,0.90
2018-07-03T09:21:47.677Z,0.80
2018-07-03T09:22:47.712Z,0.90
2018-07-03T09:23:47.751Z,1.00
2018-07-03T09:24:47.805Z,1.00
2018-07-03T09:25:47.848Z,1.10
2018-07-03T09:26:47.881Z,1.00
2018-07-03T09:27:47.918Z,1.00
2018-07-03T09:28:47.965Z,1.00
2018-07-03T09:29:48.005Z,0.80
2018-07-03T09:30:48.111Z,0.90
2018-07-03T09:31:48.089Z,0.90
2018-07-03T09:32:48.135Z,0.90
2018-07-03T09:33:48.175Z,1.00
2018-07-03T09:34:48.210Z,1.10
2018-07-03T09:35:48.261Z,1.00
2018-07-03T09:36:48.304Z,1.10
2018-07-03T09:37:48.342Z,0.90
2018-07-03T09:38:48.392Z,0.80
2018-07-03T09:39:48.428Z,0.80
2018-07-03T09:40:48.472Z,0.90
2018-07-03T09:41:48.511Z,0.90
2018-07-03T09:42:48.558Z,0.90
2018-07-03T09:43:48.597Z,1.00
2018-07-03T09:44:48.631Z,0.70
2018-07-03T09:45:48.683Z,0.80
2018-07-03T09:46:48.726Z,0.90
2018-07-03T09:47:48.765Z,0.90
2018-07-03T09:48:48.832Z,0.90
2018-07-03T09:49:48.849Z,0.80
2018-07-03T09:50:48.888Z,1.10
2018-07-03T09:51:48.939Z,0.80
2018-07-03T09:52:48.983Z,0.80
2018-07-03T09:53:49.020Z,0.90
2018-07-03T09:54:49.108Z,1.10
2018-07-03T09:55:49.135Z,0.90
2018-07-03T09:56:49.147Z,0.80
2018-07-03T09:57:49.237Z,0.80
2018-07-03T09:58:49.240Z,0.80
2018-07-03T09:59:49.540Z,1.00
2018-07-03T10:00:49.323Z,0.90
2018-07-03T10:01:49.369Z,0.90
2018-07-03T10:02:49.408Z,1.20
2018-07-03T10:03:49.455Z,0.90
2018-07-03T10:04:49.493Z,0.90
2018-07-03T10:05:49.541Z,0.80
2018-07-03T10:06:49.582Z,0.70
2018-07-03T10:07:49.616Z,0.90
2018-07-03T10:08:49.675Z,1.10
2018-07-03T10:09:49.709Z,1.00
2018-07-03T10:10:49.746Z,0.90
2018-07-03T10:11:49.805Z,0.90
2018-07-03T10:12:49.841Z,0.90
2018-07-03T10:13:49.890Z,0.80
2018-07-03T10:14:49.927Z,1.00
2018-07-03T10:15:49.966Z,0.60
2018-07-03T10:16:50.013Z,0.80
2018-07-03T10:17:50.051Z,0.90
2018-07-03T10:18:50.124Z,1.00
2018-07-03T10:19:50.145Z,1.10
2018-07-03T10:20:50.180Z,1.00
2018-07-03T10:21:50.230Z,0.90
2018-07-03T10:22:50.273Z,0.80
2018-07-03T10:23:50.321Z,1.00
2018-07-03T10:24:50.365Z,1.00
2018-07-03T10:25:50.408Z,0.90
2018-07-03T10:26:50.460Z,1.10
2018-07-03T10:27:50.485Z,1.10
2018-07-03T10:28:50.541Z,0.90
2018-07-03T10:29:50.578Z,1.00
2018-07-03T10:30:50.631Z,1.00
2018-07-03T10:31:50.674Z,1.30
2018-07-03T10:32:50.719Z,1.00
2018-07-03T10:33:50.756Z,1.10
2018-07-03T10:34:50.806Z,1.10
2018-07-03T10:35:50.845Z,1.00
2018-07-03T10:36:50.889Z,0.90
2018-07-03T10:37:50.939Z,1.00
2018-07-03T10:38:50.976Z,0.80
2018-07-03T10:39:51.026Z,0.80
2018-07-03T10:40:51.060Z,0.80
2018-07-03T10:41:51.111Z,0.90
2018-07-03T10:42:51.157Z,1.10
2018-07-03T10:43:51.208Z,0.70
2018-07-03T10:44:51.241Z,0.90
2018-07-03T10:45:51.305Z,1.30
2018-07-03T10:46:51.329Z,0.90
2018-07-03T10:47:51.380Z,1.00
2018-07-03T10:48:51.479Z,0.80
2018-07-03T10:49:51.473Z,0.90
2018-07-03T10:50:51.507Z,0.90
2018-07-03T10:51:51.559Z,0.90
2018-07-03T10:52:51.602Z,0.90
2018-07-03T10:53:51.642Z,0.70
2018-07-03T10:54:51.694Z,0.80
2018-07-03T10:55:51.731Z,0.90
2018-07-03T10:56:51.777Z,0.80
2018-07-03T10:57:51.816Z,0.90
2018-07-03T10:58:51.877Z,0.90
2018-07-03T10:59:51.910Z,1.00
2018-07-03T11:00:51.967Z,0.90
2018-07-03T11:01:51.993Z,0.90
2018-07-03T11:02:52.034Z,1.00
2018-07-03T11:03:52.084Z,0.80
2018-07-03T11:04:52.128Z,1.00
2018-07-03T11:05:52.179Z,0.90
2018-07-03T11:06:52.212Z,0.90
2018-07-03T11:07:52.265Z,0.80
2018-07-03T11:08:52.307Z,0.90
2018-07-03T11:09:52.344Z,1.30
2018-07-03T11:10:52.393Z,0.90
2018-07-03T11:11:52.433Z,0.90
2018-07-03T11:12:52.480Z,1.00
2018-07-03T11:13:52.584Z,1.00
2018-07-03T11:14:52.574Z,0.90
2018-07-03T11:15:52.614Z,1.10
2018-07-03T11:16:52.648Z,0.90
2018-07-03T11:17:52.698Z,0.80
2018-07-03T11:18:52.734Z,0.90
2018-07-03T11:19:52.857Z,0.90
2018-07-03T11:20:52.829Z,0.90
2018-07-03T11:21:52.879Z,1.00
2018-07-03T11:22:52.914Z,0.90
2018-07-03T11:23:52.953Z,1.00
2018-07-03T11:24:53.007Z,1.00
2018-07-03T11:25:53.047Z,1.00
2018-07-03T11:26:53.100Z,0.80
2018-07-03T11:27:53.137Z,1.10
2018-07-03T11:28:53.234Z,1.00
2018-07-03T11:29:53.223Z,0.90
2018-07-03T11:30:53.276Z,1.00
2018-07-03T11:31:53.315Z,0.90
2018-07-03T11:32:53.362Z,1.10
2018-07-03T11:33:53.401Z,0.90
2018-07-03T11:34:53.440Z,0.60
2018-07-03T11:35:53.505Z,0.60
2018-07-03T11:36:53.536Z,1.00
2018-07-03T11:37:53.585Z,0.80
2018-07-03T11:38:53.619Z,0.80
2018-07-03T11:39:53.668Z,0.70
2018-07-03T11:40:53.711Z,1.00
2018-07-03T11:41:53.750Z,0.80
2018-07-03T11:42:53.830Z,1.20
2018-07-03T11:43:53.845Z,0.80
2018-07-03T11:44:53.961Z,1.00
2018-07-03T11:45:53.926Z,1.00
2018-07-03T11:46:53.980Z,0.90
2018-07-03T11:47:54.018Z,1.00
2018-07-03T11:48:54.064Z,0.80
2018-07-03T11:49:54.102Z,0.80
2018-07-03T11:50:54.146Z,1.00
2018-07-03T11:51:54.199Z,1.00
2018-07-03T11:52:54.237Z,1.00
2018-07-03T11:53:54.287Z,0.90
2018-07-03T11:54:54.322Z,1.00
2018-07-03T11:55:54.374Z,0.90
2018-07-03T11:56:54.429Z,0.90
2018-07-03T11:57:54.455Z,0.90
2018-07-03T11:58:54.503Z,0.90
2018-07-03T11:59:54.540Z,0.90
2018-07-03T12:00:54.589Z,0.90
2018-07-03T12:01:54.627Z,0.80
2018-07-03T12:02:54.683Z,1.30
2018-07-03T12:03:54.722Z,0.90
2018-07-03T12:04:54.783Z,1.00
2018-07-03T12:05:54.810Z,0.80
2018-07-03T12:06:54.843Z,1.00
2018-07-03T12:07:54.894Z,1.00
2018-07-03T12:08:54.938Z,1.20
2018-07-03T12:09:54.989Z,1.30
2018-07-03T12:10:55.023Z,1.20
2018-07-03T12:11:55.073Z,1.10
2018-07-03T12:12:55.116Z,0.80
2018-07-03T12:13:55.154Z,1.00
2018-07-03T12:14:55.207Z,0.80
2018-07-03T12:15:55.246Z,1.30
2018-07-03T12:16:55.296Z,1.10
2018-07-03T12:17:55.331Z,0.90
2018-07-03T12:18:55.372Z,0.80
2018-07-03T12:19:55.482Z,0.90
2018-07-03T12:20:55.457Z,1.10
2018-07-03T12:21:55.509Z,0.70
2018-07-03T12:22:55.550Z,0.80
2018-07-03T12:23:55.588Z,0.70
2018-07-03T12:24:55.642Z,1.20
2018-07-03T12:25:55.681Z,1.20
2018-07-03T12:26:55.729Z,0.80
2018-07-03T12:27:55.769Z,0.90
2018-07-03T12:28:55.820Z,1.60
2018-07-03T12:29:55.860Z,1.10
2018-07-03T12:30:55.897Z,0.80
2018-07-03T12:31:55.948Z,1.00
2018-07-03T12:32:55.986Z,0.90
2018-07-03T12:33:56.022Z,1.00
2018-07-03T12:34:56.079Z,0.80
2018-07-03T12:35:56.116Z,1.00
2018-07-03T12:36:56.162Z,1.00
2018-07-03T12:37:56.202Z,1.10
2018-07-03T12:38:56.249Z,0.90
2018-07-03T12:39:56.292Z,0.90
2018-07-03T12:40:56.332Z,1.00
2018-07-03T12:41:56.382Z,0.90
2018-07-03T12:42:56.421Z,0.90
2018-07-03T12:43:56.484Z,1.10
2018-07-03T12:44:56.506Z,0.90
2018-07-03T12:45:56.544Z,1.00
2018-07-03T12:46:56.584Z,1.10
2018-07-03T12:47:56.636Z,0.90
2018-07-03T12:48:56.678Z,0.90
2018-07-03T12:49:56.718Z,0.70
2018-07-03T12:50:56.761Z,0.80
2018-07-03T12:51:56.800Z,0.80
2018-07-03T12:52:56.855Z,1.00
2018-07-03T12:53:56.893Z,0.80
2018-07-03T12:54:56.946Z,1.10
2018-07-03T12:55:57.001Z,0.80
2018-07-03T12:56:57.019Z,0.90
2018-07-03T12:57:57.070Z,1.20
2018-07-03T12:58:57.136Z,0.90
2018-07-03T12:59:57.155Z,0.90
2018-07-03T13:00:57.197Z,0.90
2018-07-03T13:01:57.236Z,1.00
2018-07-03T13:02:57.286Z,0.80
2018-07-03T13:03:57.323Z,1.10
2018-07-03T13:04:57.388Z,1.00
2018-07-03T13:05:57.418Z,0.90
2018-07-03T13:06:57.455Z,1.00
2018-07-03T13:07:57.525Z,1.00
2018-07-03T13:08:57.548Z,1.20
2018-07-03T13:09:57.598Z,1.00
2018-07-03T13:10:57.634Z,0.90
2018-07-03T13:11:57.676Z,1.10
2018-07-03T13:12:57.720Z,1.00
2018-07-03T13:13:57.758Z,1.00
2018-07-03T13:14:57.826Z,1.00
2018-07-03T13:15:57.879Z,1.40
2018-07-03T13:16:57.887Z,1.00
2018-07-03T13:17:57.937Z,0.90
2018-07-03T13:18:57.978Z,0.90